Airport View

Enter AWOS ICAO identifier for current METAR.

ex. KFNL

CYXX 212300Z 22006KT 160V270 20SM FEW030 SCT040 BKN060 BKN070 19/13 A3004 RMK CU2SC2SC2AC1 SLP175 DENSITY ALT 600FT

21 Sep 2019 23:25

Other Area AWOS: KBLI - CWMM - CWWK - CWZA

TAF CYXX 211738Z 2118/2218 24005KT P6SM SCT020 BKN050 TEMPO 2118/2121 BKN020 FM212100 22008KT P6SM SCT030 BKN050 TEMPO 2121/2206 BKN030 FM220600 VRB03KT P6SM SCT030 OVC070 TEMPO 2206/2211 P6SM -RA BKN030 OVC070 FM221100 VRB03KT P6SM -RA SCT015 OVC030 TEMPO 2211/2218 5SM -RA BR FEW008 BKN015 OVC030 RMK NXT FCST BY 220000Z